Time;durP1;ratioP1;P1;durP2;ratioP2;P2;SDS_P1;SDS_P2;PMS_P1;PMS_P2;Temp;Humidity;BMP_temperature;BMP_pressure;BME280_temperature;BME280_humidity;BME280_pressure;Samples;Min_cycle;Max_cycle;Signal;HPM_P1;HPM_P2
2023/07/03 00:00:51;;;;;;;14.40;4.38;;;44.40;28.50;;;;;;5018871;28;20022;-54
2023/07/03 00:03:17;;;;;;;10.95;3.53;;;44.20;27.60;;;;;;5019017;28;20449;-55
2023/07/03 00:05:47;;;;;;;11.88;3.00;;;44.10;28.80;;;;;;5017402;28;20009;-53
2023/07/03 00:08:16;;;;;;;18.55;3.42;;;44.10;27.60;;;;;;5021629;28;20005;-56
2023/07/03 00:10:42;;;;;;;15.95;3.33;;;44.10;27.00;;;;;;5018852;28;20092;-50
2023/07/03 00:13:10;;;;;;;23.20;14.88;;;43.90;28.10;;;;;;5021465;28;20112;-55
2023/07/03 00:15:37;;;;;;;23.63;15.35;;;43.90;28.30;;;;;;5016603;28;20024;-55
2023/07/03 00:18:03;;;;;;;26.83;15.35;;;43.80;26.20;;;;;;5019253;28;20028;-57
2023/07/03 00:20:30;;;;;;;25.25;15.02;;;43.80;26.70;;;;;;5021746;28;20068;-56
2023/07/03 00:22:56;;;;;;;21.13;14.43;;;43.70;26.90;;;;;;5021582;28;20033;-59
2023/07/03 00:25:23;;;;;;;12.50;7.40;;;43.60;26.50;;;;;;5022192;28;20075;-55
2023/07/03 00:27:50;;;;;;;9.75;6.38;;;43.60;27.20;;;;;;5021747;28;20056;-50
2023/07/03 00:30:16;;;;;;;13.73;6.55;;;43.50;27.30;;;;;;5021283;28;20014;-55
2023/07/03 00:32:43;;;;;;;12.13;7.43;;;43.50;26.10;;;;;;5020199;28;20079;-55
2023/07/03 00:35:10;;;;;;;33.53;17.08;;;43.40;28.10;;;;;;5019012;28;20662;-54
2023/07/03 00:37:36;;;;;;;14.48;4.00;;;43.30;27.30;;;;;;5016706;28;20463;-55
2023/07/03 00:40:03;;;;;;;15.55;3.95;;;43.30;27.70;;;;;;5022051;28;20100;-51
2023/07/03 00:42:30;;;;;;;9.82;2.88;;;43.30;27.60;;;;;;5022438;28;20550;-55
2023/07/03 00:44:57;;;;;;;10.52;3.45;;;43.20;27.60;;;;;;5019636;28;20026;-59
2023/07/03 00:47:24;;;;;;;13.02;3.60;;;43.20;27.80;;;;;;5019447;28;20068;-54
2023/07/03 00:49:51;;;;;;;7.38;2.92;;;43.10;28.50;;;;;;5021608;28;20018;-57
2023/07/03 00:52:18;;;;;;;14.27;3.40;;;43.10;27.40;;;;;;5025017;28;20054;-54
2023/07/03 00:54:44;;;;;;;16.00;3.88;;;43.00;28.00;;;;;;5022355;28;20024;-55
2023/07/03 00:57:15;;;;;;;19.48;3.75;;;43.00;28.10;;;;;;5018825;28;20063;-57
2023/07/03 00:59:42;;;;;;;15.10;3.30;;;43.00;28.70;;;;;;5019630;28;20071;-58
2023/07/03 01:02:16;;;;;;;15.38;3.50;;;42.80;29.10;;;;;;5017671;28;20045;-53
2023/07/03 01:04:57;;;;;;;18.92;4.32;;;42.80;29.60;;;;;;5051336;22;20060;-53
2023/07/03 01:07:29;;;;;;;15.30;3.80;;;42.80;29.20;;;;;;5027475;28;20033;-49
2023/07/03 01:10:19;;;;;;;12.70;3.50;;;42.60;29.40;;;;;;5034397;28;20035;-53
2023/07/03 01:12:51;;;;;;;15.70;3.90;;;42.50;30.30;;;;;;5032296;28;20094;-55
2023/07/03 01:15:22;;;;;;;15.05;3.70;;;42.40;30.10;;;;;;5029128;28;20017;-49
2023/07/03 01:17:50;;;;;;;13.80;3.63;;;42.20;30.30;;;;;;5027266;28;20124;-48
2023/07/03 01:20:20;;;;;;;13.85;4.00;;;42.20;30.40;;;;;;5027541;28;20021;-55
2023/07/03 01:23:08;;;;;;;12.60;3.58;;;42.20;30.70;;;;;;5026840;28;20029;-54
2023/07/03 01:25:39;;;;;;;14.25;3.53;;;42.20;30.70;;;;;;5029586;28;20017;-50
2023/07/03 01:28:09;;;;;;;11.50;2.90;;;42.10;30.40;;;;;;5026805;28;20074;-53
2023/07/03 01:30:38;;;;;;;19.48;4.10;;;42.00;29.90;;;;;;5027225;28;20020;-57
2023/07/03 01:33:06;;;;;;;25.25;4.07;;;41.90;29.90;;;;;;5027427;28;20171;-54
2023/07/03 01:35:33;;;;;;;10.02;3.22;;;41.80;30.10;;;;;;5024888;28;20014;-54
2023/07/03 01:38:01;;;;;;;20.15;9.57;;;41.70;30.80;;;;;;5026401;28;20080;-53
2023/07/03 01:40:28;;;;;;;26.58;16.75;;;41.60;31.00;;;;;;5025729;28;20086;-56
2023/07/03 01:42:56;;;;;;;19.42;3.85;;;41.40;31.00;;;;;;5029691;28;20025;-54
2023/07/03 01:45:22;;;;;;;25.10;6.32;;;41.30;30.80;;;;;;5027618;28;20497;-54
2023/07/03 01:47:49;;;;;;;32.58;17.10;;;41.30;31.70;;;;;;5029482;28;20079;-56
2023/07/03 01:50:20;;;;;;;37.17;18.15;;;41.20;31.50;;;;;;5027618;28;20496;-49
2023/07/03 01:53:08;;;;;;;23.15;3.72;;;41.20;31.40;;;;;;5025284;28;20026;-56
2023/07/03 01:55:43;;;;;;;15.20;3.00;;;41.10;31.30;;;;;;5028108;28;20017;-55
2023/07/03 01:58:18;;;;;;;13.20;3.70;;;40.90;33.30;;;;;;5030859;28;20025;-56
2023/07/03 02:00:52;;;;;;;15.70;4.20;;;40.80;32.70;;;;;;5024361;28;20041;-58
2023/07/03 02:03:31;;;;;;;12.02;3.40;;;40.60;32.70;;;;;;5028144;28;20022;-54
2023/07/03 02:06:01;;;;;;;11.88;3.55;;;40.50;32.50;;;;;;5028376;28;20030;-52
2023/07/03 02:08:30;;;;;;;15.60;3.67;;;40.50;32.50;;;;;;5028447;28;20010;-53
2023/07/03 02:10:57;;;;;;;25.80;14.90;;;40.30;32.70;;;;;;5026732;28;20059;-57
2023/07/03 02:13:23;;;;;;;21.40;14.88;;;40.20;33.20;;;;;;5028641;28;20481;-56
2023/07/03 02:15:50;;;;;;;29.55;15.68;;;40.20;33.40;;;;;;5029243;28;20539;-55
2023/07/03 02:18:17;;;;;;;19.17;4.38;;;40.10;33.60;;;;;;5027597;28;20448;-51
2023/07/03 02:20:51;;;;;;;33.33;16.95;;;40.00;33.30;;;;;;5027580;28;20017;-51
2023/07/03 02:23:17;;;;;;;42.05;18.13;;;39.90;33.40;;;;;;5028137;28;20049;-53
2023/07/03 02:25:44;;;;;;;34.15;17.20;;;39.80;31.30;;;;;;5027218;28;20063;-52
2023/07/03 02:28:11;;;;;;;30.25;17.33;;;39.70;30.80;;;;;;5028041;28;20051;-49
2023/07/03 02:30:37;;;;;;;25.08;15.00;;;39.70;30.00;;;;;;5034988;28;20017;-52
2023/07/03 02:33:04;;;;;;;22.92;14.82;;;39.50;30.10;;;;;;5025452;28;20036;-54
2023/07/03 02:35:30;;;;;;;33.90;17.20;;;39.50;30.90;;;;;;5027592;28;20104;-50
2023/07/03 02:37:56;;;;;;;28.55;13.77;;;39.40;31.50;;;;;;5025595;28;20463;-52
2023/07/03 02:40:23;;;;;;;14.88;4.18;;;39.30;32.30;;;;;;5026140;28;20060;-54
2023/07/03 02:42:50;;;;;;;16.48;4.10;;;39.20;32.60;;;;;;5026762;28;20064;-51
2023/07/03 02:45:16;;;;;;;13.38;4.18;;;39.10;33.10;;;;;;5026720;28;20048;-57
2023/07/03 02:47:42;;;;;;;16.58;4.35;;;39.00;33.30;;;;;;5026572;28;20122;-49
2023/07/03 02:50:09;;;;;;;22.27;4.95;;;38.90;33.50;;;;;;5026419;28;20018;-56
2023/07/03 02:52:36;;;;;;;24.65;4.22;;;38.80;34.00;;;;;;5028823;28;20115;-54
2023/07/03 02:55:02;;;;;;;27.17;4.57;;;38.70;34.10;;;;;;5030881;28;20044;-50
2023/07/03 02:57:29;;;;;;;30.25;4.82;;;38.60;34.80;;;;;;5025506;28;20050;-54
2023/07/03 02:59:55;;;;;;;26.67;4.80;;;38.60;35.30;;;;;;5025944;28;20105;-57
2023/07/03 03:02:22;;;;;;;20.75;4.68;;;38.50;35.40;;;;;;5028783;28;20099;-50
2023/07/03 03:04:48;;;;;;;21.08;4.20;;;38.50;35.40;;;;;;5029108;28;20384;-54
2023/07/03 03:07:15;;;;;;;21.33;3.85;;;38.30;35.70;;;;;;5028665;28;20035;-54
2023/07/03 03:09:41;;;;;;;17.30;4.28;;;38.30;36.10;;;;;;5031433;28;20126;-53
2023/07/03 03:12:08;;;;;;;25.08;4.15;;;38.30;36.60;;;;;;5029025;28;20521;-56
2023/07/03 03:14:35;;;;;;;19.63;4.30;;;38.20;36.10;;;;;;5033888;28;20040;-54
2023/07/03 03:17:01;;;;;;;30.15;5.80;;;38.10;36.20;;;;;;5029802;28;20041;-55
2023/07/03 03:19:28;;;;;;;16.08;3.83;;;38.00;36.40;;;;;;5029465;28;20055;-55
2023/07/03 03:21:54;;;;;;;23.02;4.63;;;37.90;36.40;;;;;;5028835;28;20047;-58
2023/07/03 03:24:20;;;;;;;18.83;4.40;;;37.80;37.00;;;;;;5029420;28;20063;-49
2023/07/03 03:26:47;;;;;;;22.38;4.15;;;37.70;37.40;;;;;;5029765;28;20593;-54
2023/07/03 03:29:13;;;;;;;24.02;4.43;;;37.60;37.80;;;;;;5028974;28;20125;-57
2023/07/03 03:31:39;;;;;;;34.22;5.15;;;37.60;37.90;;;;;;5030842;28;20125;-58
2023/07/03 03:34:06;;;;;;;26.17;4.45;;;37.50;38.30;;;;;;5030459;28;20105;-56
2023/07/03 03:36:39;;;;;;;25.17;4.68;;;37.40;38.30;;;;;;5032718;28;20044;-57
2023/07/03 03:39:06;;;;;;;28.27;5.72;;;37.40;39.10;;;;;;5028721;28;20048;-54
2023/07/03 03:41:32;;;;;;;24.20;5.05;;;37.30;39.10;;;;;;5031008;28;20050;-51
2023/07/03 03:43:58;;;;;;;20.20;4.78;;;37.20;39.30;;;;;;5028570;28;20063;-53
2023/07/03 03:46:25;;;;;;;26.40;5.25;;;37.10;39.80;;;;;;5028284;28;20076;-53
2023/07/03 03:48:51;;;;;;;27.23;4.65;;;37.10;40.00;;;;;;5038187;28;20166;-57
2023/07/03 03:51:18;;;;;;;23.15;5.70;;;37.00;40.00;;;;;;5028240;28;20418;-54
2023/07/03 03:53:44;;;;;;;31.35;4.95;;;37.00;40.10;;;;;;5031586;28;20053;-53
2023/07/03 03:56:10;;;;;;;24.33;4.50;;;37.00;40.30;;;;;;5027806;28;20053;-49
2023/07/03 03:58:37;;;;;;;20.30;4.97;;;36.90;40.50;;;;;;5028566;28;20058;-49
2023/07/03 04:01:04;;;;;;;32.58;4.95;;;36.80;40.50;;;;;;5027155;28;20070;-48
2023/07/03 04:03:30;;;;;;;30.42;9.93;;;36.60;40.70;;;;;;5028604;28;20112;-54
2023/07/03 04:05:56;;;;;;;28.45;5.43;;;36.60;41.10;;;;;;5032889;28;20080;-57
2023/07/03 04:08:23;;;;;;;28.67;5.30;;;36.40;41.20;;;;;;5028588;28;20514;-57
2023/07/03 04:10:49;;;;;;;27.00;5.10;;;36.30;41.30;;;;;;5029422;28;20055;-61
2023/07/03 04:13:16;;;;;;;28.77;6.38;;;36.20;41.40;;;;;;5027148;28;20060;-62
2023/07/03 04:16:00;;;;;;;26.85;5.25;;;36.20;41.60;;;;;;5027538;28;20107;-59
2023/07/03 04:18:27;;;;;;;41.25;6.10;;;36.10;41.60;;;;;;5028329;28;20553;-56
2023/07/03 04:20:54;;;;;;;29.55;5.63;;;36.00;41.80;;;;;;5034988;28;20055;-59
2023/07/03 04:23:21;;;;;;;29.30;4.70;;;35.90;41.70;;;;;;5027950;28;20075;-55
2023/07/03 04:25:48;;;;;;;29.05;5.10;;;35.80;41.70;;;;;;5031024;28;20043;-56
2023/07/03 04:28:18;;;;;;;26.27;4.57;;;35.70;41.70;;;;;;5030014;28;20139;-58
2023/07/03 04:30:45;;;;;;;29.35;5.63;;;35.70;41.70;;;;;;5029092;28;20146;-60
2023/07/03 04:33:12;;;;;;;43.22;6.05;;;35.60;41.70;;;;;;5028116;28;20108;-56
2023/07/03 04:35:39;;;;;;;46.70;5.70;;;35.60;41.70;;;;;;5028142;28;20068;-59
2023/07/03 04:38:06;;;;;;;34.17;5.30;;;35.60;42.40;;;;;;5028811;28;20084;-62
2023/07/03 04:40:33;;;;;;;35.85;5.22;;;35.50;41.80;;;;;;5027710;28;20419;-55
2023/07/03 04:42:59;;;;;;;30.65;5.57;;;35.50;42.10;;;;;;5026835;28;20159;-60
2023/07/03 04:45:26;;;;;;;34.67;5.20;;;35.30;41.90;;;;;;5026687;28;20053;-60
2023/07/03 04:47:53;;;;;;;36.63;5.93;;;35.30;41.90;;;;;;5026164;28;20398;-60
2023/07/03 04:50:24;;;;;;;30.35;5.65;;;35.20;42.50;;;;;;5026903;28;20058;-57
2023/07/03 04:52:52;;;;;;;37.55;5.40;;;35.20;41.90;;;;;;5028240;28;20741;-59
2023/07/03 04:55:19;;;;;;;36.15;5.97;;;35.20;41.60;;;;;;5026360;28;20053;-58
2023/07/03 04:57:45;;;;;;;35.85;5.95;;;35.10;41.50;;;;;;5026979;28;20111;-60
2023/07/03 05:00:16;;;;;;;43.53;6.68;;;35.10;41.50;;;;;;5025441;28;20149;-58
2023/07/03 05:02:48;;;;;;;36.20;4.45;;;35.00;41.40;;;;;;5025620;28;20063;-59
2023/07/03 05:05:15;;;;;;;27.33;4.70;;;35.00;41.50;;;;;;5025812;28;20119;-63
2023/07/03 05:07:43;;;;;;;27.80;4.68;;;35.00;41.50;;;;;;5026076;28;20054;-60
2023/07/03 05:10:11;;;;;;;27.80;4.15;;;34.90;41.60;;;;;;5027250;28;20054;-62
2023/07/03 05:12:38;;;;;;;26.13;4.25;;;34.80;41.50;;;;;;5027929;28;20559;-62
2023/07/03 05:15:08;;;;;;;26.95;3.95;;;34.90;41.70;;;;;;5026889;28;20055;-55
2023/07/03 05:17:38;;;;;;;27.00;4.65;;;34.80;41.90;;;;;;5024695;28;20401;-56
2023/07/03 05:20:11;;;;;;;19.88;4.32;;;34.70;42.50;;;;;;5026873;28;20635;-59
2023/07/03 05:22:39;;;;;;;22.55;4.38;;;34.50;42.20;;;;;;5026147;28;20086;-59
2023/07/03 05:25:06;;;;;;;28.92;4.30;;;34.50;42.30;;;;;;5026573;28;20123;-62
2023/07/03 05:27:34;;;;;;;30.42;5.32;;;34.50;42.20;;;;;;5028034;28;20082;-61
2023/07/03 05:30:00;;;;;;;22.90;4.15;;;34.50;42.10;;;;;;5026173;28;20151;-61
2023/07/03 05:32:27;;;;;;;17.85;3.65;;;34.40;42.60;;;;;;5026258;28;20130;-61
2023/07/03 05:34:54;;;;;;;16.23;3.70;;;34.40;43.10;;;;;;5025860;28;20434;-56
2023/07/03 05:37:20;;;;;;;23.00;4.43;;;34.20;43.30;;;;;;5027458;28;20594;-57
2023/07/03 05:39:49;;;;;;;25.33;12.60;;;34.20;43.50;;;;;;5026824;28;20124;-59
2023/07/03 05:42:19;;;;;;;19.33;5.53;;;34.10;43.10;;;;;;5029211;28;20683;-60
2023/07/03 05:44:46;;;;;;;20.70;4.90;;;34.10;43.30;;;;;;5023600;28;20394;-58
2023/07/03 05:47:14;;;;;;;21.27;5.72;;;34.00;43.40;;;;;;5025135;28;20061;-58
2023/07/03 05:49:40;;;;;;;19.48;4.68;;;33.90;43.30;;;;;;5025052;28;20060;-58
2023/07/03 05:52:08;;;;;;;33.90;4.30;;;33.90;43.80;;;;;;5024368;28;20412;-57
2023/07/03 05:54:35;;;;;;;22.38;4.50;;;33.80;43.70;;;;;;5025253;28;20071;-58
2023/07/03 05:57:05;;;;;;;19.08;3.80;;;33.90;43.30;;;;;;5024164;28;20151;-59
2023/07/03 05:59:33;;;;;;;18.20;4.18;;;33.80;43.30;;;;;;5028259;28;20080;-58
2023/07/03 06:01:59;;;;;;;23.73;4.00;;;33.80;43.30;;;;;;5023351;28;20114;-61
2023/07/03 06:04:26;;;;;;;20.27;3.92;;;33.80;43.70;;;;;;5026945;28;20695;-55
2023/07/03 06:06:55;;;;;;;25.65;4.85;;;33.70;44.00;;;;;;5025369;28;20065;-57
2023/07/03 06:09:23;;;;;;;25.38;4.35;;;33.60;44.50;;;;;;5023833;28;20072;-57
2023/07/03 06:11:49;;;;;;;16.33;3.88;;;33.60;44.60;;;;;;5024998;28;20428;-55
2023/07/03 06:14:17;;;;;;;27.70;4.93;;;33.50;45.20;;;;;;5027293;28;20076;-56
2023/07/03 06:16:45;;;;;;;21.20;4.70;;;33.50;44.50;;;;;;5027540;28;20059;-59
2023/07/03 06:19:13;;;;;;;24.55;4.70;;;33.40;44.60;;;;;;5028515;28;20429;-57
2023/07/03 06:21:39;;;;;;;21.70;4.78;;;33.30;45.40;;;;;;5029492;28;20082;-58
2023/07/03 06:24:08;;;;;;;21.20;5.15;;;33.30;46.00;;;;;;5027406;28;20162;-59
2023/07/03 06:26:34;;;;;;;20.90;5.40;;;33.30;45.40;;;;;;5030452;28;20054;-58
2023/07/03 06:29:02;;;;;;;25.67;5.00;;;33.20;45.60;;;;;;5025346;28;20068;-59
2023/07/03 06:31:29;;;;;;;25.00;5.00;;;33.20;45.20;;;;;;5029949;28;20452;-58
2023/07/03 06:33:55;;;;;;;34.55;5.50;;;33.20;46.00;;;;;;5030196;28;20076;-59
2023/07/03 06:36:22;;;;;;;26.98;4.43;;;33.10;45.60;;;;;;5029715;28;20065;-59
2023/07/03 06:38:59;;;;;;;19.65;5.10;;;33.10;45.40;;;;;;5030893;28;20068;-57
2023/07/03 06:41:30;;;;;;;21.50;4.15;;;33.10;45.40;;;;;;5029486;28;20511;-60
2023/07/03 06:43:57;;;;;;;22.98;5.13;;;33.00;45.60;;;;;;5037942;28;20101;-58
2023/07/03 06:46:24;;;;;;;16.30;4.72;;;33.00;45.60;;;;;;5037513;28;20073;-61
2023/07/03 06:48:53;;;;;;;35.30;6.15;;;33.00;46.20;;;;;;5030252;28;20102;-63
2023/07/03 06:51:20;;;;;;;28.40;7.13;;;33.00;46.00;;;;;;5029811;28;20152;-57
2023/07/03 06:53:46;;;;;;;24.13;8.13;;;33.00;46.00;;;;;;5028447;28;20560;-61
2023/07/03 06:56:13;;;;;;;26.65;7.65;;;33.00;46.50;;;;;;5028703;28;20121;-60
2023/07/03 06:58:39;;;;;;;23.63;6.90;;;33.00;46.40;;;;;;5027771;28;20149;-63
2023/07/03 07:01:08;;;;;;;29.70;7.53;;;33.00;46.40;;;;;;5029085;28;20060;-60
2023/07/03 07:03:34;;;;;;;25.45;6.70;;;33.00;46.30;;;;;;5031477;28;20552;-60
2023/07/03 07:06:08;;;;;;;35.17;6.68;;;33.10;46.50;;;;;;5033863;28;20399;-60
2023/07/03 07:08:35;;;;;;;28.58;7.05;;;33.10;46.60;;;;;;5029129;28;20060;-60
2023/07/03 07:11:01;;;;;;;24.25;6.93;;;33.10;47.10;;;;;;5031494;28;20066;-60
2023/07/03 07:13:28;;;;;;;38.50;8.38;;;33.10;47.50;;;;;;5034525;28;20094;-60
2023/07/03 07:15:54;;;;;;;31.88;7.93;;;33.10;48.10;;;;;;5029243;28;20068;-62
2023/07/03 07:18:21;;;;;;;48.25;8.63;;;33.10;48.40;;;;;;5029145;28;20729;-59
2023/07/03 07:20:47;;;;;;;38.63;9.05;;;33.10;49.20;;;;;;5029026;28;20062;-59
2023/07/03 07:23:13;;;;;;;32.42;8.32;;;33.10;50.00;;;;;;5028163;28;20068;-59
2023/07/03 07:25:40;;;;;;;37.97;9.85;;;33.00;50.80;;;;;;5027810;28;20069;-59
2023/07/03 07:28:06;;;;;;;37.08;9.10;;;33.00;50.80;;;;;;5027333;28;20065;-57
2023/07/03 07:30:36;;;;;;;42.78;8.80;;;33.00;50.90;;;;;;5031280;28;20530;-60
2023/07/03 07:33:03;;;;;;;30.52;8.20;;;32.90;51.00;;;;;;5028718;28;20065;-61
2023/07/03 07:35:29;;;;;;;34.15;7.38;;;32.90;51.30;;;;;;5028691;28;20090;-60
2023/07/03 07:37:55;;;;;;;28.75;7.07;;;32.90;51.60;;;;;;5028418;28;20564;-58
2023/07/03 07:40:22;;;;;;;33.42;7.60;;;32.90;51.60;;;;;;5032088;28;20124;-60
2023/07/03 07:42:48;;;;;;;27.55;7.03;;;32.80;51.50;;;;;;5028577;28;20081;-60
2023/07/03 07:45:15;;;;;;;29.17;7.03;;;32.80;51.70;;;;;;5028238;28;20067;-61
2023/07/03 07:47:41;;;;;;;30.73;6.97;;;32.70;52.20;;;;;;5028284;28;20068;-61
2023/07/03 07:50:08;;;;;;;44.72;7.38;;;32.70;52.60;;;;;;5034030;28;20540;-59
2023/07/03 07:52:35;;;;;;;26.92;6.68;;;32.70;52.20;;;;;;5030909;28;20091;-60
2023/07/03 07:55:02;;;;;;;34.03;6.55;;;32.60;52.30;;;;;;5028654;28;20077;-59
2023/07/03 07:57:29;;;;;;;33.97;8.32;;;32.60;52.40;;;;;;5027512;28;20067;-57
2023/07/03 07:59:55;;;;;;;33.47;7.05;;;32.60;53.00;;;;;;5027157;28;20068;-59
2023/07/03 08:02:22;;;;;;;29.17;6.50;;;32.50;52.80;;;;;;5027511;28;20067;-59
2023/07/03 08:04:48;;;;;;;30.02;6.55;;;32.50;53.90;;;;;;5033540;28;20228;-58
2023/07/03 08:07:15;;;;;;;39.95;7.18;;;32.50;53.40;;;;;;5030536;28;20143;-60
2023/07/03 08:09:42;;;;;;;28.60;6.20;;;32.50;53.40;;;;;;5032125;28;20158;-60
2023/07/03 08:12:09;;;;;;;45.95;7.63;;;32.40;53.30;;;;;;5027191;28;20113;-61
2023/07/03 08:14:36;;;;;;;33.35;8.02;;;32.40;53.30;;;;;;5031509;28;20071;-59
2023/07/03 08:17:02;;;;;;;29.08;7.20;;;32.30;53.40;;;;;;5033024;28;20128;-58
2023/07/03 08:19:30;;;;;;;29.55;7.65;;;32.30;53.60;;;;;;5034155;28;20063;-62
2023/07/03 08:21:56;;;;;;;32.70;7.63;;;32.20;53.80;;;;;;5026604;28;20068;-56
2023/07/03 08:24:22;;;;;;;31.58;7.55;;;32.10;53.90;;;;;;5026054;28;20089;-59
2023/07/03 08:26:50;;;;;;;41.88;7.65;;;32.10;54.30;;;;;;5027442;28;20158;-54
2023/07/03 08:29:17;;;;;;;30.48;6.93;;;32.00;54.80;;;;;;5027275;28;20077;-59
2023/07/03 08:31:43;;;;;;;26.05;6.07;;;32.00;55.00;;;;;;5027335;28;20526;-59
2023/07/03 08:34:11;;;;;;;36.13;7.47;;;32.00;55.00;;;;;;5027403;28;20070;-57
2023/07/03 08:36:38;;;;;;;34.45;6.85;;;31.90;55.60;;;;;;5027307;28;20557;-59
2023/07/03 08:39:05;;;;;;;31.67;7.07;;;31.90;55.50;;;;;;5026687;28;20477;-60
2023/07/03 08:41:42;;;;;;;31.95;6.82;;;31.80;55.60;;;;;;5027393;28;20079;-60
2023/07/03 08:44:09;;;;;;;28.27;7.38;;;31.80;56.10;;;;;;5027270;28;20092;-58
2023/07/03 08:46:36;;;;;;;30.33;7.40;;;31.80;56.40;;;;;;5031593;28;20126;-56
2023/07/03 08:49:05;;;;;;;34.40;7.82;;;31.70;56.30;;;;;;5029765;28;20128;-60
2023/07/03 08:51:37;;;;;;;31.08;8.82;;;31.60;56.20;;;;;;5028028;28;20104;-47
2023/07/03 08:54:23;;;;;;;31.90;7.57;;;31.90;56.60;;;;;;5026201;28;20136;-51
2023/07/03 08:56:49;;;;;;;31.63;8.33;;;32.10;56.00;;;;;;5030339;28;20595;-53
2023/07/03 08:59:16;;;;;;;28.35;7.20;;;32.30;56.30;;;;;;5026625;28;20084;-52
2023/07/03 09:02:07;;;;;;;26.20;6.22;;;32.50;55.10;;;;;;5026579;28;20154;-54
2023/07/03 09:04:45;;;;;;;24.85;6.18;;;32.60;55.90;;;;;;5028294;28;20128;-58
2023/07/03 09:07:29;;;;;;;25.60;6.28;;;32.50;55.70;;;;;;5027439;28;20110;-56
2023/07/03 09:10:04;;;;;;;21.90;5.70;;;32.40;56.20;;;;;;5026927;28;20063;-57
2023/07/03 09:12:46;;;;;;;28.35;5.70;;;32.30;55.80;;;;;;5029656;28;20072;-53
2023/07/03 09:15:34;;;;;;;22.17;5.80;;;32.40;55.90;;;;;;5036237;28;20149;-55
2023/07/03 09:18:06;;;;;;;23.67;5.45;;;32.30;56.10;;;;;;5026473;28;20134;-55
2023/07/03 09:20:33;;;;;;;35.72;6.05;;;32.10;56.50;;;;;;5028236;28;20065;-56
2023/07/03 09:23:20;;;;;;;30.35;6.03;;;32.20;56.70;;;;;;5027124;28;20135;-59
2023/07/03 09:25:59;;;;;;;;;;;32.10;56.70;;;;;;5026655;28;20059;-55
2023/07/03 09:28:25;;;;;;;21.10;5.82;;;32.10;56.80;;;;;;5030783;28;20007;-53
2023/07/03 09:30:55;;;;;;;21.23;6.07;;;32.00;56.90;;;;;;5026718;28;20145;-56
2023/07/03 09:33:21;;;;;;;29.50;5.82;;;31.90;57.20;;;;;;5026315;28;20542;-55
2023/07/03 09:35:48;;;;;;;22.90;6.50;;;31.80;57.30;;;;;;5029581;28;20076;-56
2023/07/03 09:38:21;;;;;;;24.60;6.63;;;31.80;57.90;;;;;;5026957;28;20097;-53
2023/07/03 09:40:53;;;;;;;27.00;6.75;;;31.80;57.80;;;;;;5025881;28;20127;-53
2023/07/03 09:43:25;;;;;;;29.15;6.40;;;31.80;58.40;;;;;;5025973;28;20089;-48
2023/07/03 09:46:04;;;;;;;25.65;6.30;;;31.80;57.60;;;;;;5026787;28;20153;-55
2023/07/03 09:48:31;;;;;;;23.40;5.88;;;31.80;57.70;;;;;;5026409;28;21203;-55
2023/07/03 09:50:58;;;;;;;30.75;5.90;;;31.60;58.40;;;;;;5026682;28;20078;-56
2023/07/03 09:53:26;;;;;;;23.70;6.50;;;31.50;58.10;;;;;;5024550;28;20096;-52
2023/07/03 09:55:56;;;;;;;32.10;7.05;;;31.50;58.30;;;;;;5028284;28;20084;-52
2023/07/03 09:58:25;;;;;;;25.92;6.22;;;31.40;58.60;;;;;;5029639;28;20071;-60
2023/07/03 10:00:59;;;;;;;26.92;6.80;;;31.40;58.70;;;;;;5026528;28;20134;-51
2023/07/03 10:03:30;;;;;;;31.98;6.50;;;31.20;58.90;;;;;;5034747;28;20084;-52
2023/07/03 10:06:24;;;;;;;30.65;7.10;;;31.20;59.10;;;;;;5031737;28;20115;-56
2023/07/03 10:08:51;;;;;;;27.40;6.97;;;31.10;59.50;;;;;;5023781;28;20077;-55
2023/07/03 10:11:45;;;;;;;34.85;8.00;;;31.00;60.00;;;;;;5028516;28;20087;-51
2023/07/03 10:14:17;;;;;;;25.70;7.78;;;30.80;60.60;;;;;;5022458;28;20441;-51
2023/07/03 10:16:44;;;;;;;32.90;7.88;;;30.70;61.70;;;;;;5029883;28;20082;-53
2023/07/03 10:19:11;;;;;;;36.22;8.10;;;30.60;62.20;;;;;;5030474;28;20544;-51
2023/07/03 10:21:39;;;;;;;27.92;7.20;;;30.60;62.60;;;;;;5037681;28;20161;-52
2023/07/03 10:24:08;;;;;;;41.53;7.88;;;30.60;63.00;;;;;;5030981;28;20195;-53
2023/07/03 10:26:48;;;;;;;37.85;8.52;;;30.60;63.30;;;;;;5034296;28;20439;-51
2023/07/03 10:29:42;;;;;;;39.83;8.80;;;30.60;63.50;;;;;;5030807;28;20084;-54
2023/07/03 10:32:15;;;;;;;33.30;8.27;;;30.60;63.20;;;;;;5028454;28;20164;-51
2023/07/03 10:35:06;;;;;;;30.60;7.40;;;30.50;63.20;;;;;;5029625;28;20435;-55
2023/07/03 10:37:45;;;;;;;32.03;7.95;;;30.50;63.30;;;;;;5030779;28;20171;-59
2023/07/03 10:40:19;;;;;;;32.55;7.68;;;30.40;63.40;;;;;;5033972;28;20082;-62
2023/07/03 10:42:52;;;;;;;33.72;7.43;;;30.40;63.60;;;;;;5032350;28;20184;-54
2023/07/03 10:45:20;;;;;;;36.05;8.00;;;30.30;64.10;;;;;;5031381;28;20113;-56
2023/07/03 10:47:56;;;;;;;26.55;7.30;;;30.20;64.40;;;;;;5031738;28;20085;-54
2023/07/03 10:50:30;;;;;;;35.10;8.70;;;30.20;64.80;;;;;;5038995;28;20589;-59
2023/07/03 10:53:21;;;;;;;35.22;9.77;;;30.10;64.90;;;;;;5029378;28;20089;-56
2023/07/03 10:56:14;;;;;;;36.75;10.80;;;30.10;66.00;;;;;;5023864;28;20456;-54
2023/07/03 10:59:01;;;;;;;43.55;11.63;;;30.10;65.90;;;;;;5014820;28;20086;-58
2023/07/03 11:02:05;;;;;;;35.35;8.50;;;30.10;65.70;;;;;;5013192;28;20113;-58
2023/07/03 11:04:59;;;;;;;28.27;7.35;;;30.10;66.10;;;;;;5029123;28;20193;-58
2023/07/03 11:07:43;;;;;;;34.70;7.72;;;30.10;66.90;;;;;;5027490;28;20075;-59
2023/07/03 11:10:48;;;;;;;28.00;7.43;;;30.20;67.00;;;;;;5028248;28;20072;-55
2023/07/03 11:13:37;;;;;;;27.67;7.95;;;30.20;67.20;;;;;;5030020;28;20146;-56
2023/07/03 11:16:13;;;;;;;30.65;8.55;;;30.20;67.80;;;;;;5029960;28;20126;-52
2023/07/03 11:19:07;;;;;;;32.83;9.45;;;30.00;68.80;;;;;;5031956;28;20077;-53
2023/07/03 11:21:42;;;;;;;34.33;8.82;;;29.90;69.80;;;;;;5029109;28;20161;-54
2023/07/03 11:24:16;;;;;;;30.05;8.25;;;29.90;70.80;;;;;;5027757;28;20102;-56
2023/07/03 11:26:58;;;;;;;46.00;9.18;;;29.80;72.20;;;;;;5029715;28;20164;-55
2023/07/03 11:29:25;;;;;;;32.47;8.32;;;29.70;74.60;;;;;;5034639;28;20141;-54
2023/07/03 11:31:52;;;;;;;26.23;8.20;;;29.60;75.30;;;;;;5038830;28;20075;-56
2023/07/03 11:34:20;;;;;;;31.10;8.30;;;29.60;76.00;;;;;;5032682;28;20110;-56
2023/07/03 11:36:54;;;;;;;21.98;8.10;;;29.50;76.80;;;;;;5027127;28;20089;-55
2023/07/03 11:39:29;;;;;;;28.42;8.63;;;29.40;78.00;;;;;;5028558;28;20078;-56
2023/07/03 11:42:02;;;;;;;33.22;10.90;;;29.40;79.10;;;;;;5029364;28;20089;-56
2023/07/03 11:44:32;;;;;;;30.92;10.15;;;29.30;80.20;;;;;;5028836;28;20103;-53
2023/07/03 11:47:10;;;;;;;28.77;10.57;;;29.20;81.00;;;;;;5028521;28;20086;-55
2023/07/03 11:50:02;;;;;;;33.45;10.23;;;29.20;81.60;;;;;;5029511;28;20564;-55
2023/07/03 11:52:40;;;;;;;28.33;11.02;;;29.30;82.40;;;;;;5028945;28;20702;-54
2023/07/03 11:55:15;;;;;;;32.30;11.02;;;29.20;82.30;;;;;;5028303;28;20080;-49
2023/07/03 11:57:45;;;;;;;29.42;11.38;;;29.00;83.70;;;;;;5030651;28;20134;-51
2023/07/03 12:00:28;;;;;;;31.33;9.98;;;29.10;83.30;;;;;;5028294;28;20090;-56
2023/07/03 12:03:04;;;;;;;28.05;9.82;;;29.00;83.50;;;;;;5027525;28;20093;-51
2023/07/03 12:05:46;;;;;;;38.40;10.85;;;29.10;83.80;;;;;;5030390;28;20096;-55
2023/07/03 12:08:19;;;;;;;31.50;11.75;;;29.00;84.60;;;;;;5027272;28;20443;-58
2023/07/03 12:10:58;;;;;;;28.15;11.05;;;28.90;84.10;;;;;;5032884;28;20142;-54
2023/07/03 12:13:31;;;;;;;30.50;11.45;;;28.90;84.90;;;;;;5028086;28;20845;-59
2023/07/03 12:15:59;;;;;;;31.67;11.15;;;28.90;84.60;;;;;;5038769;28;20076;-56
2023/07/03 12:18:26;;;;;;;30.73;11.57;;;28.80;84.70;;;;;;5026351;28;20082;-55
2023/07/03 12:21:04;;;;;;;30.48;11.20;;;28.90;84.90;;;;;;5031050;28;20570;-54
2023/07/03 12:23:32;;;;;;;34.47;12.35;;;28.90;84.90;;;;;;5029366;28;20099;-58
2023/07/03 12:26:16;;;;;;;30.50;11.13;;;28.80;85.00;;;;;;5033346;28;20084;-52
2023/07/03 12:28:44;;;;;;;28.13;10.77;;;28.80;85.50;;;;;;5026963;28;20491;-56
2023/07/03 12:31:16;;;;;;;32.05;11.18;;;28.80;85.70;;;;;;5027336;28;20562;-50
2023/07/03 12:33:57;;;;;;;33.83;10.57;;;28.70;85.90;;;;;;5027238;28;20149;-57
2023/07/03 12:36:25;;;;;;;29.23;10.82;;;28.70;86.10;;;;;;5032876;28;20163;-55
2023/07/03 12:38:52;;;;;;;39.42;11.70;;;28.70;86.30;;;;;;5031462;28;20451;-57
2023/07/03 12:41:33;;;;;;;33.00;10.98;;;28.70;86.70;;;;;;5027296;28;20162;-54
2023/07/03 12:44:01;;;;;;;30.73;10.55;;;28.60;87.00;;;;;;5029605;28;20187;-57
2023/07/03 12:46:34;;;;;;;31.45;9.93;;;28.50;87.40;;;;;;5031721;28;20083;-54
2023/07/03 12:49:05;;;;;;;35.88;10.52;;;28.60;87.50;;;;;;5026220;28;20093;-49
2023/07/03 12:51:43;;;;;;;40.75;10.68;;;28.60;87.30;;;;;;5027915;28;20083;-53